Time;durP1;ratioP1;P1;durP2;ratioP2;P2;SDS_P1;SDS_P2;PMS_P1;PMS_P2;Temp;Humidity;BMP_temperature;BMP_pressure;BME280_temperature;BME280_humidity;BME280_pressure;Samples;Min_cycle;Max_cycle;Signal;HPM_P1;HPM_P2
2024/04/06 00:01:06;;;;;;;2.70;2.00;;;;;;;10.45;71.18;99054.80;105303;1266;75266;-27
2024/04/06 00:03:34;;;;;;;4.50;1.20;;;;;;;10.24;71.99;99053.80;105252;1265;74283;-27
2024/04/06 00:06:19;;;;;;;5.20;2.30;;;;;;;10.67;71.07;99057.31;105279;1266;73783;-27
2024/04/06 00:09:05;;;;;;;2.30;1.50;;;;;;;11.11;69.46;99055.17;105310;1266;61680;-27
2024/04/06 00:11:32;;;;;;;6.30;2.00;;;;;;;11.04;69.57;99055.90;105214;1267;61079;-27
2024/04/06 00:14:00;;;;;;;3.20;1.70;;;;;;;10.91;69.51;99055.04;105163;1266;73553;-27
2024/04/06 00:16:28;;;;;;;2.80;1.70;;;;;;;10.66;70.41;99049.47;105046;1266;73255;-27
2024/04/06 00:19:14;;;;;;;2.00;1.70;;;;;;;10.44;71.49;99049.79;105154;1265;73523;-27
2024/04/06 00:21:41;;;;;;;1.90;1.20;;;;;;;10.22;72.53;99048.42;105170;1264;61724;-27
2024/04/06 00:24:27;;;;;;;3.20;1.80;;;;;;;10.78;71.50;99048.20;105151;1264;61740;-27
2024/04/06 00:26:55;;;;;;;2.90;2.10;;;;;;;11.16;69.88;99042.63;105138;1268;73101;-27
2024/04/06 00:29:40;;;;;;;2.50;1.80;;;;;;;11.16;69.49;99043.96;105113;1261;76027;-27
2024/04/06 00:32:08;;;;;;;2.70;1.60;;;;;;;11.07;69.51;99047.99;104855;1266;72069;-27
2024/04/06 00:34:35;;;;;;;3.00;2.00;;;;;;;10.89;70.00;99045.52;105076;1274;61227;-27
2024/04/06 00:37:21;;;;;;;1.40;1.10;;;;;;;10.69;70.59;99046.14;105882;1257;60987;-27
2024/04/06 00:39:48;;;;;;;1.70;1.20;;;;;;;11.26;69.78;99042.81;105710;1258;73786;-27
2024/04/06 00:42:16;;;;;;;3.50;1.80;;;;;;;11.77;67.71;99043.02;105880;1256;75091;-27
2024/04/06 00:44:43;;;;;;;2.30;1.50;;;;;;;11.84;67.00;99043.13;105668;1257;71100;-27
2024/04/06 00:47:29;;;;;;;2.70;1.80;;;;;;;11.64;67.22;99042.59;105867;1254;61153;-27
2024/04/06 00:49:57;;;;;;;1.90;1.60;;;;;;;11.40;67.67;99040.42;105691;1260;61179;-27
2024/04/06 00:52:25;;;;;;;2.40;1.70;;;;;;;11.12;68.14;99040.48;105631;1260;73771;-27
2024/04/06 00:54:52;;;;;;;2.20;1.70;;;;;;;10.77;69.30;99038.15;105454;1259;75102;-27
2024/04/06 00:57:38;;;;;;;3.50;2.30;;;;;;;11.27;68.47;99034.56;105815;1264;73982;-27
2024/04/06 01:00:24;;;;;;;2.20;1.50;;;;;;;11.62;67.34;99027.27;105829;1256;61106;-27
2024/04/06 01:03:09;;;;;;;3.60;2.40;;;;;;;11.53;67.34;99031.80;105700;1259;61090;-27
2024/04/06 01:05:37;;;;;;;2.10;1.50;;;;;;;11.26;68.11;99033.41;105682;1258;73866;-28
2024/04/06 01:08:05;;;;;;;5.60;2.20;;;;;;;10.93;69.24;99031.45;105838;1257;73722;-27
2024/04/06 01:10:33;;;;;;;3.00;2.00;;;;;;;10.60;70.95;99030.30;105697;1259;72687;-27
2024/04/06 01:13:18;;;;;;;3.40;2.20;;;;;;;10.81;70.96;99033.98;105849;1257;61048;-27
2024/04/06 01:15:46;;;;;;;3.10;2.30;;;;;;;11.04;69.88;99030.49;105655;1258;61196;-27
2024/04/06 01:18:13;;;;;;;4.40;2.30;;;;;;;11.04;69.93;99029.48;105915;1257;73914;-28
2024/04/06 01:20:43;;;;;;;2.70;1.90;;;;;;;10.83;70.60;99023.89;105837;1255;73350;-27
2024/04/06 01:23:12;;;;;;;4.20;2.40;;;;;;;10.76;70.98;99018.08;105690;1254;72678;-27
2024/04/06 01:25:57;;;;;;;3.00;2.10;;;;;;;10.68;71.46;99008.83;105663;1257;61039;-27
2024/04/06 01:28:43;;;;;;;2.60;2.00;;;;;;;11.17;70.09;99013.45;105629;1256;61809;-27
2024/04/06 01:31:29;;;;;;;4.80;2.20;;;;;;;11.45;68.97;99011.84;105814;1257;75527;-27
2024/04/06 01:34:14;;;;;;;3.40;2.00;;;;;;;11.52;68.33;99005.47;105827;1254;76057;-27
2024/04/06 01:36:41;;;;;;;3.60;2.10;;;;;;;11.29;69.01;99005.00;105600;1257;71774;-27
2024/04/06 01:39:27;;;;;;;2.00;1.20;;;;;;;10.99;70.35;98998.69;105793;1265;61169;-27
2024/04/06 01:41:54;;;;;;;4.40;2.40;;;;;;;11.25;70.08;98998.01;105662;1264;61135;-27
2024/04/06 01:44:40;;;;;;;2.80;2.50;;;;;;;11.73;67.82;98990.48;105893;1256;75229;-27
2024/04/06 01:47:07;;;;;;;1.60;1.40;;;;;;;11.80;67.27;98985.85;105700;1259;74300;-27
2024/04/06 01:49:53;;;;;;;6.00;2.90;;;;;;;11.39;68.59;98985.23;105863;1255;74029;-27
2024/04/06 01:52:21;;;;;;;8.20;3.40;;;;;;;11.06;69.90;98988.00;105628;1258;61185;-27
2024/04/06 01:54:48;;;;;;;3.40;2.40;;;;;;;10.86;70.78;98985.48;105663;1262;61134;-27
2024/04/06 01:57:16;;;;;;;4.10;2.90;;;;;;;11.24;69.65;98987.03;105651;1259;71618;-27
2024/04/06 01:59:45;;;;;;;6.50;3.00;;;;;;;11.42;68.51;98981.81;105802;1257;73270;-27
2024/04/06 02:02:13;;;;;;;4.10;2.70;;;;;;;11.51;68.17;98977.30;105687;1257;71840;-27
2024/04/06 02:04:40;;;;;;;5.00;3.50;;;;;;;11.27;68.72;98976.16;105691;1260;61183;-27
2024/04/06 02:07:08;;;;;;;7.90;3.10;;;;;;;11.03;69.53;98976.38;105876;1257;61107;-27
2024/04/06 02:09:35;;;;;;;3.80;2.00;;;;;;;10.91;69.90;98978.98;105801;1257;72637;-27
2024/04/06 02:14:00;;;;;;;3.40;2.30;;;;;;;11.64;67.96;98978.36;102626;1293;600510;-26
2024/04/06 02:16:28;;;;;;;5.50;2.90;;;;;;;11.94;66.50;98981.22;104846;1267;61071;-26
2024/04/06 02:18:55;;;;;;;7.10;2.80;;;;;;;11.63;67.32;98983.70;104845;1267;61011;-26
2024/04/06 02:21:41;;;;;;;4.30;2.80;;;;;;;11.47;67.58;98982.14;104891;1270;71819;-26
2024/04/06 02:24:08;;;;;;;3.00;2.30;;;;;;;11.17;68.51;98982.91;104826;1267;74675;-26
2024/04/06 02:26:36;;;;;;;5.90;3.60;;;;;;;11.00;68.89;98975.50;101336;1270;4725596;-26
2024/04/06 02:29:04;;;;;;;3.70;2.40;;;;;;;10.83;69.98;98974.77;104868;1272;61203;-28
2024/04/06 02:31:32;;;;;;;5.30;3.00;;;;;;;11.45;68.36;98972.23;105173;1263;61183;-26
2024/04/06 02:33:59;;;;;;;5.80;2.70;;;;;;;11.78;66.98;98973.69;105140;1267;72477;-28
2024/04/06 02:36:27;;;;;;;4.30;2.60;;;;;;;11.74;66.75;98971.23;105113;1264;74446;-27
2024/04/06 02:39:14;;;;;;;4.40;2.80;;;;;;;11.49;67.46;98967.52;104889;1263;71397;-27
2024/04/06 02:41:42;;;;;;;4.30;2.50;;;;;;;11.24;68.07;98967.72;105145;1263;61192;-27
2024/04/06 02:44:09;;;;;;;5.80;2.60;;;;;;;11.05;68.73;98967.58;104860;1269;61109;-27
2024/04/06 02:46:54;;;;;;;3.30;2.10;;;;;;;10.75;70.06;98969.92;105109;1269;71597;-27
2024/04/06 02:49:41;;;;;;;3.50;2.30;;;;;;;11.35;68.42;98964.73;105207;1266;75632;-27
2024/04/06 02:52:26;;;;;;;3.60;2.30;;;;;;;11.68;66.98;98956.67;105137;1264;74041;-27
2024/04/06 02:54:54;;;;;;;3.40;2.20;;;;;;;11.76;66.34;98951.96;104951;1262;60981;-27
2024/04/06 02:57:21;;;;;;;5.70;3.20;;;;;;;11.66;66.11;98952.30;105235;1265;61082;-27
2024/04/06 03:00:10;;;;;;;2.80;2.20;;;;;;;11.38;66.42;98944.96;105208;1264;76728;-27
2024/04/06 03:02:38;;;;;;;4.70;2.80;;;;;;;11.06;67.08;98947.16;105428;1258;73271;-27
2024/04/06 03:05:06;;;;;;;5.10;2.20;;;;;;;10.72;68.33;98942.73;105729;1259;71402;-27
2024/04/06 03:07:51;;;;;;;4.90;3.00;;;;;;;11.22;67.79;98942.69;105832;1254;61686;-27
2024/04/06 03:10:19;;;;;;;5.50;2.20;;;;;;;11.52;66.51;98941.67;105674;1259;61121;-27
2024/04/06 03:13:05;;;;;;;6.10;2.80;;;;;;;11.38;66.52;98941.86;105700;1256;75132;-27
2024/04/06 03:15:32;;;;;;;4.70;2.60;;;;;;;11.17;66.91;98942.48;105661;1254;74669;-27
2024/04/06 03:18:00;;;;;;;5.40;2.20;;;;;;;10.92;67.12;98945.89;105572;1254;71475;-27
2024/04/06 03:20:27;;;;;;;5.00;2.10;;;;;;;10.70;67.71;98945.11;105699;1255;61097;-27
2024/04/06 03:23:02;;;;;;;3.00;2.00;;;;;;;10.43;68.83;98943.48;105661;1259;61185;-27
2024/04/06 03:25:48;;;;;;;3.60;2.20;;;;;;;11.08;68.00;98943.57;105718;1254;72572;-27
2024/04/06 03:28:33;;;;;;;3.60;1.50;;;;;;;11.56;66.56;98943.11;105710;1254;75693;-27
2024/04/06 03:31:01;;;;;;;3.10;2.10;;;;;;;11.51;66.22;98944.23;105443;1255;72822;-27
2024/04/06 03:33:28;;;;;;;4.60;2.30;;;;;;;11.33;66.90;98946.48;105511;1259;61125;-27
2024/04/06 03:35:56;;;;;;;2.80;2.10;;;;;;;11.07;67.82;98947.27;105477;1259;61091;-27
2024/04/06 03:38:41;;;;;;;4.40;2.40;;;;;;;10.78;69.09;98942.89;105673;1254;75192;-27
2024/04/06 03:41:09;;;;;;;3.20;2.10;;;;;;;10.84;69.69;98939.64;105643;1259;74474;-27
2024/04/06 03:43:55;;;;;;;3.00;1.90;;;;;;;11.41;68.05;98933.83;105769;1258;73979;-27
2024/04/06 03:46:27;;;;;;;2.80;2.00;;;;;;;11.50;67.43;98932.29;105641;1259;61154;-27
2024/04/06 03:48:55;;;;;;;3.80;2.30;;;;;;;11.36;67.52;98934.70;105628;1260;61077;-27
2024/04/06 03:51:26;;;;;;;4.60;2.30;;;;;;;11.09;68.51;98934.02;105727;1254;72868;-27
2024/04/06 03:54:12;;;;;;;4.10;1.70;;;;;;;10.89;68.96;98936.80;105710;1259;73877;-27
2024/04/06 03:56:40;;;;;;;3.00;2.50;;;;;;;11.36;68.15;98934.76;105629;1254;72846;-27
2024/04/06 03:59:26;;;;;;;2.90;1.60;;;;;;;11.83;66.52;98935.85;105611;1260;63445;-27
2024/04/06 04:01:54;;;;;;;3.50;2.20;;;;;;;11.80;66.22;98933.70;105731;1259;61156;-27
2024/04/06 04:04:21;;;;;;;3.30;1.90;;;;;;;11.57;66.96;98936.89;105834;1256;72761;-27
2024/04/06 04:06:49;;;;;;;3.60;2.20;;;;;;;11.42;67.24;98935.95;105553;1258;75086;-27
2024/04/06 04:09:16;;;;;;;4.20;2.40;;;;;;;11.29;67.28;98933.58;105521;1257;72838;-27
2024/04/06 04:12:02;;;;;;;2.60;1.70;;;;;;;11.02;68.44;98932.80;105451;1258;63372;-27
2024/04/06 04:14:29;;;;;;;5.10;2.30;;;;;;;11.56;67.92;98930.38;105455;1259;61227;-27
2024/04/06 04:16:57;;;;;;;2.10;1.60;;;;;;;11.90;66.52;98934.41;105378;1259;73862;-27
2024/04/06 04:19:42;;;;;;;4.30;2.80;;;;;;;11.81;66.47;98930.50;105662;1259;75992;-27
2024/04/06 04:22:10;;;;;;;2.20;1.80;;;;;;;11.60;66.93;98932.52;105463;1257;72736;-27
2024/04/06 04:24:37;;;;;;;3.70;2.60;;;;;;;11.40;67.71;98933.50;105566;1259;61081;-27
2024/04/06 04:27:24;;;;;;;7.10;1.70;;;;;;;11.21;68.56;98930.06;105790;1253;61081;-27
2024/04/06 04:29:52;;;;;;;4.50;2.00;;;;;;;11.74;67.68;98929.52;105649;1254;72967;-28
2024/04/06 04:32:37;;;;;;;2.70;2.10;;;;;;;12.15;66.20;98928.85;105756;1259;73406;-27
2024/04/06 04:35:05;;;;;;;4.20;2.80;;;;;;;12.12;66.23;98930.78;105676;1259;73447;-27
2024/04/06 04:37:32;;;;;;;2.80;2.20;;;;;;;11.96;66.54;98927.58;105656;1254;61100;-27
2024/04/06 04:40:18;;;;;;;3.20;2.20;;;;;;;11.77;66.86;98922.45;105744;1254;61052;-28
2024/04/06 04:42:46;;;;;;;6.10;3.00;;;;;;;11.61;67.58;98919.05;105716;1259;72548;-27
2024/04/06 04:45:14;;;;;;;4.40;2.20;;;;;;;11.48;68.61;98921.99;105467;1254;73948;-27
2024/04/06 04:47:42;;;;;;;5.50;2.50;;;;;;;12.16;67.27;98918.21;105503;1262;72717;-27
2024/04/06 04:50:28;;;;;;;3.10;2.30;;;;;;;12.52;65.51;98912.34;105575;1254;61099;-27
2024/04/06 04:53:13;;;;;;;4.60;2.20;;;;;;;12.26;65.62;98914.38;105519;1258;61752;-27
2024/04/06 04:55:59;;;;;;;4.60;2.30;;;;;;;12.03;66.51;98915.20;105630;1254;73056;-27
2024/04/06 04:58:27;;;;;;;4.60;2.10;;;;;;;11.84;66.77;98913.15;105497;1254;74348;-27
2024/04/06 05:00:54;;;;;;;2.90;2.10;;;;;;;11.76;68.03;98912.65;105459;1254;71594;-27
2024/04/06 05:03:40;;;;;;;5.90;2.50;;;;;;;12.35;66.45;98913.33;105489;1260;61069;-27
2024/04/06 05:06:08;;;;;;;3.40;1.70;;;;;;;12.53;65.32;98901.95;105538;1254;61043;-27
2024/04/06 05:08:35;;;;;;;3.00;1.40;;;;;;;12.46;65.35;98902.95;105626;1260;72550;-27
2024/04/06 05:11:03;;;;;;;4.30;2.30;;;;;;;12.37;65.77;98900.27;105465;1254;74295;-27
2024/04/06 05:13:31;;;;;;;1.80;1.60;;;;;;;12.16;66.86;98895.05;105667;1254;71394;-27
2024/04/06 05:16:16;;;;;;;4.90;2.10;;;;;;;12.34;66.93;98889.73;105656;1258;61090;-27
2024/04/06 05:19:05;;;;;;;4.40;2.00;;;;;;;12.84;64.94;98886.25;105715;1255;61071;-27
2024/04/06 05:21:33;;;;;;;2.20;1.50;;;;;;;12.83;64.59;98883.89;105543;1254;74045;-27
2024/04/06 05:24:00;;;;;;;2.70;1.80;;;;;;;12.57;65.75;98884.56;105583;1255;73965;-28
2024/04/06 05:26:28;;;;;;;3.40;2.30;;;;;;;12.52;65.71;98879.60;105600;1254;72720;-27
2024/04/06 05:28:56;;;;;;;1.60;1.50;;;;;;;12.37;66.40;98885.36;105500;1254;61050;-27
2024/04/06 05:31:24;;;;;;;3.50;1.90;;;;;;;12.48;66.54;98877.48;105281;1263;61177;-27
2024/04/06 05:34:09;;;;;;;3.20;2.30;;;;;;;12.99;64.76;98872.35;105638;1255;75121;-27
2024/04/06 05:36:55;;;;;;;1.60;1.20;;;;;;;13.15;64.58;98869.55;105672;1260;75988;-27
2024/04/06 05:39:22;;;;;;;4.80;2.00;;;;;;;13.09;64.46;98869.27;105616;1257;72802;-27
2024/04/06 05:41:50;;;;;;;4.50;2.40;;;;;;;13.19;64.91;98863.61;105601;1254;61042;-27
2024/04/06 05:44:22;;;;;;;3.10;2.10;;;;;;;13.19;65.30;98857.86;105572;1259;61163;-27
2024/04/06 05:47:07;;;;;;;5.60;1.80;;;;;;;13.81;64.36;98855.23;105577;1258;75165;-27
2024/04/06 05:49:52;;;;;;;4.40;2.40;;;;;;;14.46;62.26;98849.77;105671;1259;75819;-28
2024/04/06 05:52:38;;;;;;;2.40;1.80;;;;;;;14.57;61.53;98847.60;105701;1254;73984;-27
2024/04/06 05:55:24;;;;;;;4.70;2.40;;;;;;;14.58;60.46;98840.93;105783;1254;61743;-27
2024/04/06 05:57:51;;;;;;;2.60;1.90;;;;;;;14.81;60.61;98837.88;105698;1254;61192;-29
2024/04/06 06:00:19;;;;;;;3.20;2.10;;;;;;;14.90;60.31;98838.93;105689;1254;73982;-26
2024/04/06 06:02:47;;;;;;;3.50;2.50;;;;;;;14.83;59.98;98835.79;105674;1258;73228;-27
2024/04/06 06:05:15;;;;;;;3.60;1.90;;;;;;;14.81;60.04;98832.80;105627;1254;72102;-27
2024/04/06 06:07:42;;;;;;;5.00;2.00;;;;;;;14.74;59.96;98832.99;105642;1257;61055;-28
2024/04/06 06:10:09;;;;;;;2.60;1.30;;;;;;;14.71;61.04;98827.88;105688;1259;61099;-27
2024/04/06 06:12:57;;;;;;;2.00;1.50;;;;;;;15.48;59.56;98825.58;105659;1254;75327;-26
2024/04/06 06:15:42;;;;;;;4.00;2.00;;;;;;;16.04;57.72;98827.23;105525;1254;76188;-27
2024/04/06 06:18:10;;;;;;;2.40;1.80;;;;;;;16.19;57.52;98821.76;105593;1258;72870;-28
2024/04/06 06:20:56;;;;;;;1.90;1.50;;;;;;;16.12;57.38;98820.59;105785;1260;61081;-27
2024/04/06 06:23:23;;;;;;;4.70;1.60;;;;;;;15.96;57.37;98819.29;105651;1259;61162;-27
2024/04/06 06:25:51;;;;;;;1.70;1.10;;;;;;;15.85;57.37;98816.95;105629;1254;74561;-27
2024/04/06 06:28:19;;;;;;;3.60;1.60;;;;;;;15.77;57.69;98821.24;105587;1259;74507;-27
2024/04/06 06:31:04;;;;;;;2.20;1.60;;;;;;;15.75;57.88;98816.98;105513;1258;72548;-27
2024/04/06 06:33:50;;;;;;;1.30;1.00;;;;;;;15.79;57.26;98811.67;105525;1260;61160;-27
2024/04/06 06:36:18;;;;;;;4.70;1.10;;;;;;;15.51;57.52;98808.14;105481;1259;61888;-27
2024/04/06 06:38:49;;;;;;;1.10;1.00;;;;;;;15.56;57.52;98804.23;105530;1259;74683;-27
2024/04/06 06:41:19;;;;;;;3.60;1.00;;;;;;;15.60;57.27;98805.40;105581;1254;75075;-27
2024/04/06 06:44:04;;;;;;;2.40;1.20;;;;;;;15.70;57.56;98800.67;105585;1260;73901;-27
2024/04/06 06:46:32;;;;;;;0.60;0.60;;;;;;;15.87;57.44;98797.46;105676;1259;61342;-27
2024/04/06 06:49:18;;;;;;;2.50;1.60;;;;;;;15.94;57.56;98793.59;105543;1254;61241;-27
2024/04/06 06:51:45;;;;;;;4.00;1.50;;;;;;;16.01;57.37;98790.77;105600;1254;74685;-27
2024/04/06 06:54:31;;;;;;;1.30;0.90;;;;;;;16.16;56.92;98791.92;105709;1258;76346;-27
2024/04/06 06:56:59;;;;;;;1.10;0.90;;;;;;;15.99;56.59;98787.45;105743;1254;73322;-27
2024/04/06 06:59:26;;;;;;;1.20;0.90;;;;;;;15.79;56.72;98791.52;105681;1260;61347;-27
2024/04/06 07:02:32;;;;;;;4.70;1.10;;;;;;;15.68;57.04;98791.41;105624;1255;61582;-28
2024/04/06 07:04:59;;;;;;;1.50;1.10;;;;;;;15.70;56.96;98789.98;105696;1254;74703;-27
2024/04/06 07:07:27;;;;;;;2.30;1.00;;;;;;;15.82;56.90;98787.30;105509;1259;74570;-27
2024/04/06 07:09:54;;;;;;;1.20;1.00;;;;;;;15.99;56.37;98786.56;105559;1254;72518;-27
2024/04/06 07:12:40;;;;;;;3.20;1.30;;;;;;;16.27;56.00;98785.89;105746;1254;61711;-27
2024/04/06 07:15:07;;;;;;;2.10;1.00;;;;;;;16.46;54.29;98777.68;105503;1259;61292;-27
2024/04/06 07:17:35;;;;;;;2.30;1.10;;;;;;;16.68;53.22;98772.96;105508;1255;74705;-27
2024/04/06 07:20:03;;;;;;;3.70;1.30;;;;;;;17.18;53.63;98770.90;105549;1254;74415;-27
2024/04/06 07:22:31;;;;;;;3.40;1.00;;;;;;;17.44;52.75;98769.70;105293;1254;72160;-27
2024/04/06 07:25:18;;;;;;;3.60;1.20;;;;;;;17.48;52.01;98764.48;105495;1254;61600;-27
2024/04/06 07:28:03;;;;;;;3.20;1.10;;;;;;;17.50;51.72;98763.06;105640;1260;61693;-27
2024/04/06 07:30:49;;;;;;;1.70;0.70;;;;;;;17.76;51.40;98765.91;105516;1259;75980;-27
2024/04/06 07:33:16;;;;;;;2.00;1.20;;;;;;;17.81;50.68;98761.33;105611;1260;74674;-27
2024/04/06 07:36:02;;;;;;;13.50;2.40;;;;;;;17.98;50.66;98760.09;105702;1259;73943;-27
2024/04/06 07:38:29;;;;;;;6.10;1.20;;;;;;;17.87;49.58;98757.54;105624;1258;61448;-27
2024/04/06 07:41:15;;;;;;;2.70;1.30;;;;;;;17.83;49.89;98757.58;105858;1257;61334;-27
2024/04/06 07:44:01;;;;;;;2.70;1.30;;;;;;;17.99;49.70;98753.47;105697;1254;73550;-27
2024/04/06 07:46:47;;;;;;;2.60;1.40;;;;;;;17.83;49.73;98746.01;105707;1259;73176;-27
2024/04/06 07:49:15;;;;;;;2.30;1.40;;;;;;;17.65;49.95;98745.60;105697;1254;72811;-27
2024/04/06 07:51:43;;;;;;;0.90;0.80;;;;;;;17.40;49.84;98744.06;105696;1260;61327;-27
2024/04/06 07:54:10;;;;;;;2.40;1.50;;;;;;;17.47;49.76;98738.16;105734;1259;61761;-27
2024/04/06 07:56:38;;;;;;;3.00;1.50;;;;;;;17.58;49.69;98745.63;105678;1254;73807;-27
2024/04/06 07:59:06;;;;;;;2.20;1.30;;;;;;;17.66;49.54;98750.59;105643;1259;75119;-27
2024/04/06 08:01:33;;;;;;;1.60;1.10;;;;;;;17.75;49.27;98751.40;105639;1259;71495;-27
2024/04/06 08:04:19;;;;;;;2.50;1.80;;;;;;;17.76;48.96;98755.58;105735;1260;61734;-27
2024/04/06 08:07:06;;;;;;;2.90;1.50;;;;;;;17.69;49.16;98755.77;105527;1255;61250;-27
2024/04/06 08:09:56;;;;;;;3.40;1.30;;;;;;;17.68;49.17;98763.61;105816;1260;76491;-27
2024/04/06 08:12:25;;;;;;;4.20;1.50;;;;;;;17.72;49.24;98764.60;105619;1261;76614;-27
2024/04/06 08:14:52;;;;;;;1.30;1.20;;;;;;;17.69;49.06;98763.70;105702;1260;73288;-27
2024/04/06 08:17:40;;;;;;;2.40;1.50;;;;;;;17.70;49.25;98772.57;105726;1258;61761;-27
2024/04/06 08:20:25;;;;;;;2.60;1.70;;;;;;;17.70;49.57;98771.45;105822;1260;61484;-27
2024/04/06 08:22:53;;;;;;;2.40;1.40;;;;;;;17.68;49.75;98775.95;105595;1258;74746;-28
2024/04/06 08:25:20;;;;;;;1.90;1.40;;;;;;;17.65;49.53;98773.30;105451;1253;76950;-27
2024/04/06 08:27:48;;;;;;;3.00;1.50;;;;;;;17.55;49.66;98776.03;105600;1254;73375;-28
2024/04/06 08:30:16;;;;;;;4.10;2.10;;;;;;;17.65;49.86;98776.86;105564;1260;61221;-28
2024/04/06 08:32:45;;;;;;;3.00;1.70;;;;;;;17.81;50.09;98784.27;105715;1269;61259;-27
2024/04/06 08:35:31;;;;;;;3.40;1.40;;;;;;;17.93;49.58;98784.33;105861;1257;74493;-26
2024/04/06 08:37:58;;;;;;;4.00;2.70;;;;;;;18.03;49.75;98782.88;105659;1260;73311;-27
2024/04/06 08:40:26;;;;;;;2.50;1.50;;;;;;;18.13;49.31;98778.13;105454;1255;70639;-27
2024/04/06 08:42:55;;;;;;;5.70;1.40;;;;;;;18.22;49.13;98781.98;105296;1259;61407;-27
2024/04/06 08:45:42;;;;;;;4.10;1.10;;;;;;;18.14;48.61;98776.75;105487;1260;61356;-27
2024/04/06 08:48:09;;;;;;;1.80;1.20;;;;;;;18.11;48.52;98773.59;105478;1254;74809;-27
2024/04/06 08:50:37;;;;;;;3.00;1.00;;;;;;;18.14;48.57;98774.55;105272;1259;74497;-27
2024/04/06 08:53:23;;;;;;;2.60;1.50;;;;;;;18.17;48.55;98770.43;105630;1254;74031;-27
2024/04/06 08:55:50;;;;;;;2.50;1.10;;;;;;;18.17;48.22;98761.21;105545;1259;61573;-27
2024/04/06 08:58:17;;;;;;;1.90;1.30;;;;;;;18.15;47.94;98758.05;105463;1260;61321;-26
2024/04/06 09:00:45;;;;;;;1.60;1.00;;;;;;;18.29;47.84;98755.59;105651;1260;74639;-27
2024/04/06 09:03:33;;;;;;;1.10;0.90;;;;;;;18.43;48.08;98754.03;105704;1258;75557;-26
2024/04/06 09:06:19;;;;;;;1.60;1.00;;;;;;;18.57;47.27;98747.44;105839;1259;74015;-27
2024/04/06 09:09:06;;;;;;;1.90;1.20;;;;;;;18.66;47.33;98750.66;105658;1260;61659;-27
2024/04/06 09:11:52;;;;;;;4.80;1.00;;;;;;;18.65;47.06;98748.12;105710;1257;61209;-27
2024/04/06 09:14:19;;;;;;;1.70;0.90;;;;;;;18.42;47.45;98739.59;105601;1255;73730;-26
2024/04/06 09:17:08;;;;;;;2.10;1.00;;;;;;;18.43;47.21;98738.55;105838;1257;74651;-27
2024/04/06 09:19:36;;;;;;;2.90;1.60;;;;;;;18.52;47.65;98736.54;105650;1255;73235;-27
2024/04/06 09:22:04;;;;;;;2.50;0.90;;;;;;;18.64;47.27;98739.80;105647;1269;61234;-27
2024/04/06 09:24:54;;;;;;;3.10;1.00;;;;;;;18.78;47.26;98731.84;105835;1257;61359;-27
2024/04/06 09:27:21;;;;;;;2.30;1.10;;;;;;;19.00;47.05;98732.13;105695;1260;74758;-27
2024/04/06 09:29:49;;;;;;;2.30;0.90;;;;;;;19.32;46.44;98731.42;105674;1259;73919;-27
2024/04/06 09:32:18;;;;;;;1.70;1.00;;;;;;;19.52;45.04;98722.09;105618;1257;72837;-28
2024/04/06 09:34:52;;;;;;;3.60;0.90;;;;;;;19.70;45.38;98715.27;105684;1260;61352;-28
2024/04/06 09:37:39;;;;;;;3.00;1.40;;;;;;;20.20;44.21;98701.52;105530;1259;61703;-26
2024/04/06 09:40:10;;;;;;;2.80;1.10;;;;;;;20.18;44.21;98705.77;105734;1260;74765;-27
2024/04/06 09:42:38;;;;;;;2.50;1.20;;;;;;;20.18;43.86;98702.65;105694;1259;75036;-28
2024/04/06 09:45:23;;;;;;;2.20;0.70;;;;;;;19.82;45.08;98697.63;105693;1254;74014;-28
2024/04/06 09:47:51;;;;;;;2.20;1.00;;;;;;;20.13;43.95;98696.48;105478;1255;61313;-28
2024/04/06 09:50:38;;;;;;;1.90;0.90;;;;;;;20.20;43.60;98690.61;105606;1256;61364;-27
2024/04/06 09:53:06;;;;;;;2.70;1.60;;;;;;;19.89;44.65;98688.90;105683;1260;75380;-27
2024/04/06 09:55:52;;;;;;;3.50;1.00;;;;;;;19.66;45.08;98682.94;105835;1259;75692;-27
2024/04/06 09:58:28;;;;;;;2.10;1.20;;;;;;;19.66;45.42;98683.95;105670;1258;72844;-27
2024/04/06 10:01:16;;;;;;;4.10;1.20;;;;;;;19.48;46.63;98685.04;105693;1255;63382;-27
2024/04/06 10:03:46;;;;;;;3.00;1.80;;;;;;;19.16;46.86;98674.94;105852;1256;61221;-27
2024/04/06 10:06:21;;;;;;;2.40;1.20;;;;;;;19.09;47.34;98662.77;105684;1255;74767;-27
2024/04/06 10:08:49;;;;;;;2.40;1.30;;;;;;;19.06;47.35;98655.61;105667;1255;75137;-27
2024/04/06 10:11:35;;;;;;;2.30;0.80;;;;;;;19.03;47.71;98649.53;105789;1259;74034;-27
2024/04/06 10:14:04;;;;;;;2.30;1.20;;;;;;;19.09;48.17;98646.61;105614;1254;61307;-27
2024/04/06 10:16:33;;;;;;;2.00;1.20;;;;;;;19.32;47.75;98648.59;105639;1260;61239;-26
2024/04/06 10:19:00;;;;;;;2.60;1.00;;;;;;;19.36;47.32;98650.08;105367;1260;74735;-27
2024/04/06 10:21:36;;;;;;;3.30;1.20;;;;;;;19.33;47.40;98649.64;105291;1260;74656;-27
2024/04/06 10:24:07;;;;;;;2.00;1.10;;;;;;;19.36;46.82;98650.80;105711;1259;71708;-28
2024/04/06 10:26:35;;;;;;;1.70;1.00;;;;;;;19.44;46.72;98653.10;105575;1260;62034;-27
2024/04/06 10:29:03;;;;;;;2.60;1.10;;;;;;;19.38;46.85;98650.79;105684;1254;61289;-27
2024/04/06 10:31:30;;;;;;;4.60;1.30;;;;;;;19.36;46.23;98649.11;105642;1259;74115;-27
2024/04/06 10:34:14;;;;;;;2.40;1.00;;;;;;;19.36;46.93;98652.23;105670;1254;73273;-27
2024/04/06 10:36:41;;;;;;;1.30;1.00;;;;;;;19.41;46.66;98654.79;105495;1255;72887;-27
2024/04/06 10:39:09;;;;;;;1.70;0.80;;;;;;;19.27;46.84;98658.86;105506;1259;61358;-27
2024/04/06 10:41:37;;;;;;;1.90;1.10;;;;;;;19.16;46.57;98660.08;105670;1265;62252;-27
2024/04/06 10:44:05;;;;;;;2.40;0.90;;;;;;;19.04;46.88;98667.48;105738;1259;75216;-27
2024/04/06 10:46:33;;;;;;;1.30;1.00;;;;;;;19.05;47.60;98673.04;105656;1254;74101;-27
2024/04/06 10:49:01;;;;;;;3.10;1.10;;;;;;;18.89;47.97;98663.55;105708;1260;73463;-28
2024/04/06 10:51:33;;;;;;;3.00;1.30;;;;;;;18.81;47.83;98664.40;105673;1254;61227;-27
2024/04/06 10:54:00;;;;;;;2.20;0.70;;;;;;;18.83;47.76;98666.45;105864;1257;61259;-27
2024/04/06 10:56:28;;;;;;;2.70;1.10;;;;;;;18.73;47.69;98664.20;105607;1254;74835;-27
2024/04/06 10:58:55;;;;;;;0.70;0.60;;;;;;;18.72;47.80;98663.66;105566;1260;74062;-27
2024/04/06 11:01:23;;;;;;;1.80;1.00;;;;;;;18.62;48.54;98662.87;105406;1260;72775;-27
2024/04/06 11:04:12;;;;;;;3.20;1.00;;;;;;;18.60;48.80;98665.73;105746;1257;61250;-27
2024/04/06 11:06:40;;;;;;;2.60;1.00;;;;;;;18.50;48.67;98664.20;105689;1260;61414;-27
2024/04/06 11:09:10;;;;;;;1.70;1.10;;;;;;;18.46;49.18;98668.90;105421;1257;74834;-27
2024/04/06 11:11:38;;;;;;;1.40;0.90;;;;;;;18.39;48.96;98671.25;105653;1260;74230;-27
2024/04/06 11:14:25;;;;;;;3.00;1.20;;;;;;;18.31;49.33;98671.16;105680;1259;73863;-27
2024/04/06 11:16:53;;;;;;;1.70;1.00;;;;;;;18.28;49.50;98672.90;105334;1260;61240;-27
2024/04/06 11:19:24;;;;;;;1.10;0.90;;;;;;;18.29;49.87;98670.14;105557;1260;61122;-27
2024/04/06 11:22:09;;;;;;;1.20;0.80;;;;;;;18.43;49.16;98662.35;105780;1256;76398;-27
2024/04/06 11:24:55;;;;;;;1.00;0.80;;;;;;;18.50;49.12;98660.60;105716;1259;75595;-27
2024/04/06 11:27:50;;;;;;;0.50;0.50;;;;;;;18.56;49.01;98659.20;105632;1255;71544;-27
2024/04/06 11:30:18;;;;;;;0.90;0.50;;;;;;;18.60;48.31;98658.42;105703;1253;61311;-27
2024/04/06 11:33:04;;;;;;;4.50;0.80;;;;;;;18.65;48.36;98654.23;105696;1255;61304;-27
2024/04/06 11:35:32;;;;;;;0.70;0.70;;;;;;;18.65;48.66;98654.98;105626;1259;74820;-28
2024/04/06 11:38:17;;;;;;;2.00;0.90;;;;;;;18.70;49.23;98652.41;105585;1259;75759;-28
2024/04/06 11:40:48;;;;;;;2.30;0.80;;;;;;;18.63;49.24;98653.63;105476;1258;71458;-27
2024/04/06 11:43:33;;;;;;;1.30;0.70;;;;;;;18.70;49.46;98647.54;105607;1258;61257;-28
2024/04/06 11:46:00;;;;;;;2.20;0.80;;;;;;;18.58;49.20;98651.39;105617;1254;61158;-27
2024/04/06 11:48:28;;;;;;;2.70;0.80;;;;;;;18.60;50.20;98644.90;105578;1254;75435;-27
2024/04/06 11:51:16;;;;;;;1.50;0.80;;;;;;;18.72;49.93;98646.55;105805;1254;72349;-27
2024/04/06 11:53:43;;;;;;;1.80;0.70;;;;;;;18.89;49.22;98643.95;105317;1259;73199;-28
2024/04/06 11:56:17;;;;;;;1.90;0.80;;;;;;;18.80;49.70;98634.86;105663;1260;61323;-29
2024/04/06 11:58:44;;;;;;;2.40;0.80;;;;;;;18.50;50.41;98635.85;105684;1260;61238;-28